Time;durP1;ratioP1;P1;durP2;ratioP2;P2;SDS_P1;SDS_P2;PMS_P1;PMS_P2;Temp;Humidity;BMP_temperature;BMP_pressure;BME280_temperature;BME280_humidity;BME280_pressure;Samples;Min_cycle;Max_cycle;Signal;HPM_P1;HPM_P2
2023/06/14 00:01:06;;;;;;;6.17;3.10;;;19.70;87.20;;;19.39;41.98;101050.75;5052365;28;20524;-74
2023/06/14 00:03:38;;;;;;;7.97;3.27;;;19.50;87.30;;;19.30;42.26;101052.00;5052241;28;20672;-73
2023/06/14 00:06:12;;;;;;;5.47;2.57;;;19.40;87.90;;;19.20;42.34;101057.03;5052676;28;20201;-73
2023/06/14 00:08:44;;;;;;;3.40;3.03;;;19.50;88.10;;;19.19;42.92;101055.34;5052569;28;20191;-73
2023/06/14 00:11:16;;;;;;;5.37;3.23;;;19.30;88.40;;;19.23;43.05;101059.31;5052574;28;20285;-74
2023/06/14 00:13:47;;;;;;;4.93;2.87;;;19.50;88.90;;;19.17;42.74;101065.59;5054563;28;20222;-73
2023/06/14 00:16:20;;;;;;;5.23;3.03;;;19.30;89.00;;;19.15;42.68;101062.25;5056399;28;20214;-73
2023/06/14 00:18:52;;;;;;;5.20;3.17;;;19.30;88.70;;;18.98;43.17;101063.69;5056315;28;20210;-73
2023/06/14 00:21:29;;;;;;;4.37;3.30;;;19.20;89.30;;;18.92;43.45;101064.53;5056127;28;20688;-73
2023/06/14 00:24:02;;;;;;;7.03;3.00;;;19.10;89.70;;;18.99;43.27;101068.06;5056335;28;20304;-73
2023/06/14 00:26:35;;;;;;;3.30;3.00;;;19.20;89.30;;;18.79;43.67;101072.63;5056307;28;20190;-73
2023/06/14 00:29:07;;;;;;;3.87;3.10;;;19.00;90.00;;;18.76;44.07;101075.78;5055895;28;20241;-73
2023/06/14 00:31:38;;;;;;;5.10;3.00;;;18.90;90.30;;;18.86;43.82;101077.03;5055757;28;20640;-73
2023/06/14 00:34:10;;;;;;;5.83;3.00;;;19.10;90.00;;;18.82;43.81;101073.06;5056141;28;20200;-73
2023/06/14 00:36:43;;;;;;;4.77;2.77;;;19.00;90.00;;;18.79;44.34;101069.94;5056083;28;20214;-73
2023/06/14 00:39:15;;;;;;;4.73;2.90;;;18.90;90.20;;;18.62;44.41;101073.03;5055952;28;20214;-74
2023/06/14 00:41:47;;;;;;;3.63;2.80;;;18.80;90.30;;;18.66;44.32;101071.56;5055596;28;20320;-73
2023/06/14 00:44:22;;;;;;;4.87;2.77;;;18.80;90.50;;;18.56;44.52;101071.13;5055959;28;20194;-73
2023/06/14 00:46:53;;;;;;;5.60;3.10;;;18.80;90.40;;;18.38;44.75;101076.25;5055976;28;20289;-73
2023/06/14 00:49:26;;;;;;;3.80;2.63;;;18.70;90.80;;;18.28;45.04;101083.94;5055859;28;20214;-73
2023/06/14 00:52:00;;;;;;;3.97;3.20;;;18.50;91.10;;;18.16;45.30;101080.94;5055616;28;20252;-73
2023/06/14 00:54:32;;;;;;;5.87;2.80;;;18.40;91.40;;;18.13;45.59;101072.38;5055766;28;20278;-73
2023/06/14 00:57:04;;;;;;;4.93;2.90;;;18.30;91.60;;;18.24;45.69;101072.66;5055699;28;20190;-73
2023/06/14 00:59:39;;;;;;;6.23;2.93;;;18.40;91.20;;;18.12;45.51;101070.69;5055277;28;20297;-73
2023/06/14 01:02:10;;;;;;;3.10;2.80;;;18.30;91.30;;;18.14;45.46;101074.06;5055589;28;20257;-73
2023/06/14 01:04:45;;;;;;;5.70;2.93;;;18.30;91.50;;;18.18;45.94;101076.16;5055617;28;20201;-73
2023/06/14 01:07:32;;;;;;;4.13;3.00;;;18.40;91.60;;;18.20;45.53;101073.25;5055584;28;20186;-73
2023/06/14 01:10:32;;;;;;;4.77;2.60;;;18.40;91.60;;;18.24;46.27;101079.94;5055484;28;20617;-73
2023/06/14 01:13:09;;;;;;;5.50;2.47;;;18.40;91.80;;;18.17;45.89;101073.66;5055011;28;20230;-73
2023/06/14 01:15:44;;;;;;;4.83;2.70;;;18.40;91.60;;;18.14;46.24;101077.63;5055365;28;20247;-73
2023/06/14 01:18:17;;;;;;;5.20;2.80;;;18.40;92.00;;;18.18;45.80;101073.44;5055339;28;20194;-73
2023/06/14 01:20:50;;;;;;;4.67;2.60;;;18.50;92.00;;;18.18;46.44;101080.75;5055282;28;20217;-73
2023/06/14 01:23:32;;;;;;;4.60;2.90;;;18.40;92.00;;;18.15;46.23;101081.97;5055086;28;20222;-73
2023/06/14 01:26:05;;;;;;;5.57;3.00;;;18.40;92.10;;;18.14;46.29;101082.19;5054931;28;20602;-73
2023/06/14 01:28:38;;;;;;;4.67;2.63;;;18.40;92.30;;;18.11;46.93;101079.88;5055128;28;20229;-73
2023/06/14 01:31:12;;;;;;;4.83;2.80;;;18.40;92.00;;;18.04;46.87;101087.16;5054829;28;20241;-73
2023/06/14 01:33:45;;;;;;;6.07;2.60;;;18.30;92.40;;;17.95;47.10;101082.91;5054947;28;20314;-73
2023/06/14 01:36:19;;;;;;;3.60;2.50;;;18.10;92.40;;;17.96;46.66;101079.16;5054670;28;20293;-73
2023/06/14 01:38:56;;;;;;;5.33;2.73;;;18.20;92.40;;;17.91;47.37;101087.09;5054514;28;20722;-73
2023/06/14 01:41:29;;;;;;;5.40;3.00;;;18.10;92.60;;;17.78;47.89;101085.09;5054378;28;20241;-73
2023/06/14 01:44:02;;;;;;;6.07;2.50;;;18.00;93.00;;;17.82;47.56;101088.25;5054772;28;20264;-73
2023/06/14 01:46:34;;;;;;;6.47;2.77;;;18.00;93.00;;;17.86;47.74;101086.81;5054787;28;20229;-74
2023/06/14 01:49:07;;;;;;;3.93;2.53;;;18.00;92.60;;;17.82;47.66;101088.25;5054919;28;20190;-74
2023/06/14 01:51:39;;;;;;;6.13;2.90;;;18.10;92.80;;;17.68;47.83;101088.19;5054663;28;20214;-73
2023/06/14 01:54:13;;;;;;;5.47;2.70;;;17.90;92.90;;;17.65;48.08;101094.00;5055207;28;20217;-74
2023/06/14 01:56:45;;;;;;;7.50;2.80;;;17.90;92.90;;;17.62;48.48;101088.97;5054291;28;20715;-73
2023/06/14 01:59:16;;;;;;;4.93;3.23;;;17.80;93.20;;;17.55;48.08;101092.63;5054439;28;20307;-74
2023/06/14 02:01:48;;;;;;;4.53;2.67;;;17.80;93.60;;;17.55;48.89;101092.63;5054050;28;20780;-73
2023/06/14 02:04:20;;;;;;;6.10;2.33;;;17.80;93.60;;;17.58;48.83;101093.09;5054404;28;20194;-73
2023/06/14 02:06:52;;;;;;;2.77;2.20;;;17.80;93.70;;;17.58;48.52;101093.09;5054420;28;20273;-73
2023/06/14 02:09:25;;;;;;;3.00;2.70;;;17.80;93.40;;;17.62;48.33;101093.53;5054364;28;20201;-73
2023/06/14 02:11:57;;;;;;;6.87;2.80;;;17.90;93.40;;;17.55;48.05;101093.47;5054210;28;20229;-73
2023/06/14 02:14:29;;;;;;;5.97;2.83;;;17.80;93.50;;;17.50;48.72;101085.09;5054293;28;20201;-73
2023/06/14 02:17:01;;;;;;;3.53;2.80;;;17.70;93.80;;;17.37;49.01;101095.81;5053919;28;20684;-73
2023/06/14 02:19:35;;;;;;;3.10;2.80;;;17.60;94.10;;;17.30;48.91;101097.63;5054097;28;20241;-73
2023/06/14 02:22:10;;;;;;;5.87;2.60;;;17.50;90.30;;;17.22;49.69;101103.19;5054790;28;20233;-73
2023/06/14 02:24:43;;;;;;;7.00;3.20;;;17.50;90.30;;;17.18;49.43;101091.94;5054066;28;20196;-73
2023/06/14 02:27:15;;;;;;;4.03;2.80;;;17.40;90.40;;;17.21;48.94;101101.50;5054017;28;20400;-73
2023/06/14 02:29:48;;;;;;;4.83;2.87;;;17.50;90.20;;;17.05;50.15;101097.22;5053987;28;20190;-73
2023/06/14 02:32:20;;;;;;;4.03;3.10;;;17.30;90.20;;;17.10;49.86;101097.47;5053536;28;20232;-73
2023/06/14 02:34:53;;;;;;;3.27;2.97;;;17.30;90.30;;;17.11;49.36;101101.00;5053816;28;20277;-73
2023/06/14 02:37:25;;;;;;;3.70;2.90;;;17.40;90.10;;;17.10;49.63;101104.75;5053218;28;20249;-73
2023/06/14 02:39:59;;;;;;;5.60;3.10;;;17.30;90.10;;;16.95;50.54;101104.78;5053383;28;20806;-73
2023/06/14 02:42:31;;;;;;;5.63;2.87;;;17.20;90.30;;;16.88;50.00;101101.22;5053633;28;20312;-62
2023/06/14 02:45:04;;;;;;;4.83;3.10;;;17.20;90.40;;;16.87;51.02;101109.50;5053677;28;20289;-75
2023/06/14 02:47:35;;;;;;;5.77;3.20;;;17.10;90.70;;;16.82;50.69;101106.53;5053303;28;20194;-75
2023/06/14 02:50:09;;;;;;;5.50;3.10;;;17.10;90.60;;;16.73;51.39;101103.97;5053691;28;20244;-75
2023/06/14 02:52:41;;;;;;;5.83;3.10;;;17.00;90.80;;;16.69;51.07;101101.81;5053176;28;20672;-75
2023/06/14 02:55:15;;;;;;;3.47;3.00;;;16.90;90.90;;;16.67;50.74;101109.28;5053543;28;20190;-75
2023/06/14 02:57:47;;;;;;;5.30;3.43;;;16.90;90.60;;;16.66;50.84;101113.03;5053196;28;20617;-75
2023/06/14 03:00:21;;;;;;;4.10;3.00;;;17.00;90.90;;;16.68;50.25;101113.66;5053634;28;20250;-75
2023/06/14 03:02:54;;;;;;;3.20;2.90;;;16.90;90.70;;;16.65;51.52;101117.59;5053304;28;20222;-74
2023/06/14 03:05:27;;;;;;;6.30;3.20;;;16.90;90.70;;;16.64;51.05;101120.50;5053347;28;20201;-75
2023/06/14 03:08:00;;;;;;;6.50;2.93;;;16.90;90.80;;;16.61;50.96;101120.88;5053287;28;20191;-75
2023/06/14 03:10:33;;;;;;;5.10;2.80;;;16.80;91.00;;;16.48;51.88;101129.63;5054048;28;20190;-77
2023/06/14 03:13:05;;;;;;;4.93;3.10;;;16.80;91.30;;;16.41;52.17;101128.69;5052830;28;20868;-75
2023/06/14 03:15:37;;;;;;;4.37;2.93;;;16.70;91.40;;;16.38;51.63;101131.78;5053191;28;20252;-75
2023/06/14 03:18:09;;;;;;;5.77;3.23;;;16.60;91.50;;;16.40;52.05;101132.44;5053187;28;20205;-75
2023/06/14 03:20:42;;;;;;;3.47;2.90;;;16.60;91.50;;;16.34;52.15;101141.28;5053005;28;20596;-75
2023/06/14 03:23:16;;;;;;;8.97;3.03;;;16.60;91.60;;;16.43;51.97;101132.06;5053019;28;20226;-75
2023/06/14 03:25:49;;;;;;;4.37;2.97;;;16.60;91.60;;;16.37;52.57;101140.91;5053165;28;20273;-75
2023/06/14 03:28:20;;;;;;;6.00;3.20;;;16.80;91.50;;;16.32;52.61;101143.34;5053128;28;20218;-76
2023/06/14 03:30:54;;;;;;;6.63;3.17;;;16.60;91.80;;;16.34;52.24;101145.84;5052994;28;20273;-75
2023/06/14 03:33:26;;;;;;;4.33;2.80;;;16.60;91.80;;;16.27;51.91;101140.34;5052178;28;20226;-76
2023/06/14 03:35:58;;;;;;;4.73;3.00;;;16.50;91.70;;;16.27;52.28;101143.06;5052981;28;20244;-76
2023/06/14 03:38:30;;;;;;;4.03;3.17;;;16.50;91.80;;;16.17;53.35;101146.03;5053128;28;20194;-76
2023/06/14 03:41:03;;;;;;;3.87;2.60;;;16.50;92.10;;;16.10;53.02;101150.50;5052785;28;20253;-75
2023/06/14 03:43:35;;;;;;;4.90;3.13;;;16.40;92.20;;;15.98;53.28;101156.56;5053060;28;20236;-75
2023/06/14 03:46:07;;;;;;;4.93;3.23;;;16.30;92.70;;;15.98;53.89;101153.88;5053107;28;20204;-75
2023/06/14 03:48:39;;;;;;;4.80;2.97;;;16.20;92.80;;;15.94;54.18;101160.66;5056772;28;20313;-75
2023/06/14 03:51:11;;;;;;;5.00;3.40;;;16.20;93.00;;;15.82;53.55;101164.84;5057111;28;20189;-75
2023/06/14 03:53:43;;;;;;;3.93;3.00;;;16.30;93.10;;;15.84;54.41;101162.78;5056915;28;20232;-76
2023/06/14 03:56:37;;;;;;;3.70;2.63;;;16.10;93.40;;;15.86;54.13;101169.69;5056810;28;20210;-76
2023/06/14 03:59:10;;;;;;;5.90;3.50;;;16.20;93.30;;;15.86;53.99;101163.44;5056590;28;20597;-76
2023/06/14 04:01:46;;;;;;;3.87;3.00;;;16.20;93.30;;;15.81;53.99;101171.25;5056805;28;20210;-75
2023/06/14 04:04:18;;;;;;;4.40;3.00;;;16.20;93.20;;;15.82;53.89;101175.66;5056740;28;20282;-76
2023/06/14 04:06:50;;;;;;;4.47;3.10;;;16.20;93.30;;;15.76;54.09;101181.75;5056803;28;20194;-76
2023/06/14 04:09:22;;;;;;;6.47;3.10;;;16.10;93.50;;;15.73;55.54;101178.41;5056746;28;20195;-75
2023/06/14 04:11:56;;;;;;;6.87;3.50;;;16.10;93.90;;;15.64;54.68;101182.22;5056251;28;20686;-75
2023/06/14 04:14:27;;;;;;;4.93;2.80;;;16.00;93.80;;;15.76;54.48;101179.06;5056668;28;20197;-75
2023/06/14 04:17:00;;;;;;;4.30;2.87;;;16.20;94.00;;;15.72;54.74;101187.53;5056318;28;20635;-75
2023/06/14 04:19:31;;;;;;;6.63;2.93;;;16.10;93.80;;;15.72;54.74;101187.53;5057091;28;20194;-75
2023/06/14 04:22:04;;;;;;;5.10;2.93;;;16.10;93.90;;;15.74;54.93;101184.66;5056378;28;20307;-75
2023/06/14 04:24:36;;;;;;;4.73;2.90;;;16.10;93.90;;;15.72;55.22;101190.22;5056524;28;20194;-75
2023/06/14 04:27:10;;;;;;;6.10;3.10;;;16.10;94.00;;;15.62;54.97;101189.66;5056129;28;20636;-75
2023/06/14 04:29:43;;;;;;;3.97;3.00;;;16.00;94.00;;;15.56;55.53;101190.38;5056397;28;20226;-75
2023/06/14 04:32:18;;;;;;;3.30;2.57;;;16.00;94.00;;;15.59;55.21;101192.72;5056253;28;20222;-75
2023/06/14 04:34:53;;;;;;;3.47;2.80;;;16.00;94.40;;;15.56;55.22;101190.38;5056300;28;20202;-75
2023/06/14 04:37:27;;;;;;;6.10;3.07;;;16.00;94.40;;;15.58;55.48;101190.22;5056854;28;20271;-75
2023/06/14 04:40:04;;;;;;;3.03;2.83;;;16.00;94.60;;;15.52;55.89;101191.75;5056122;28;20288;-75
2023/06/14 04:42:38;;;;;;;5.70;2.97;;;15.90;94.60;;;15.60;55.10;101197.09;5056654;28;20244;-75
2023/06/14 04:45:10;;;;;;;4.80;3.07;;;16.00;94.70;;;15.60;55.63;101199.78;5056050;28;20246;-76
2023/06/14 04:47:43;;;;;;;3.57;2.77;;;16.00;94.30;;;15.61;55.31;101203.34;5056017;28;20190;-75
2023/06/14 04:50:18;;;;;;;4.10;2.87;;;16.00;94.60;;;15.60;55.71;101202.50;5056028;28;20226;-76
2023/06/14 04:52:51;;;;;;;3.43;2.80;;;16.00;94.70;;;15.49;56.65;101205.63;5055969;28;20231;-75
2023/06/14 04:55:24;;;;;;;5.90;3.03;;;16.00;95.00;;;15.56;56.25;101201.19;5055551;28;20596;-75
2023/06/14 04:57:57;;;;;;;4.50;2.83;;;16.00;95.10;;;15.61;57.04;101203.34;5055858;28;20194;-75
2023/06/14 05:00:30;;;;;;;3.03;2.73;;;16.00;95.30;;;15.54;56.50;101197.84;5054859;28;20635;-77
2023/06/14 05:03:02;;;;;;;3.90;2.57;;;16.10;95.20;;;15.57;56.69;101210.97;5055697;28;20230;-76
2023/06/14 05:05:34;;;;;;;4.00;2.57;;;16.00;95.30;;;15.64;56.04;101198.41;5055410;28;20567;-76
2023/06/14 05:08:06;;;;;;;6.10;3.00;;;16.10;95.20;;;15.65;56.30;101205.47;5055304;28;20631;-75
2023/06/14 05:10:38;;;;;;;7.20;2.63;;;16.10;95.10;;;15.62;56.41;101216.63;5055335;28;20230;-76
2023/06/14 05:13:11;;;;;;;4.83;2.67;;;16.10;95.30;;;15.72;56.32;101219.06;5055451;28;20229;-75
2023/06/14 05:15:43;;;;;;;4.73;3.07;;;16.20;95.00;;;15.75;56.94;101215.19;5055454;28;20222;-75
2023/06/14 05:18:16;;;;;;;3.57;2.80;;;16.20;95.40;;;15.77;56.28;101219.38;5055407;28;20190;-75
2023/06/14 05:20:47;;;;;;;3.93;2.73;;;16.30;95.20;;;15.81;56.57;101218.00;5055013;28;20289;-75
2023/06/14 05:23:19;;;;;;;8.53;3.13;;;16.30;95.20;;;15.82;56.81;101216.16;5055354;28;20253;-75
2023/06/14 05:25:51;;;;;;;3.90;3.00;;;16.30;95.30;;;15.75;56.66;101224.13;5055271;28;20285;-75
2023/06/14 05:28:25;;;;;;;2.67;2.47;;;16.20;95.40;;;15.78;56.33;101228.34;5055229;28;20277;-75
2023/06/14 05:30:58;;;;;;;5.10;3.20;;;16.30;95.60;;;15.68;57.46;101234.78;5055182;28;20201;-76
2023/06/14 05:33:29;;;;;;;3.37;2.47;;;16.20;95.80;;;15.64;57.56;101225.41;5055091;28;20240;-75
2023/06/14 05:36:02;;;;;;;4.33;2.97;;;16.20;95.80;;;15.67;57.14;101227.75;5054840;28;20618;-75
2023/06/14 05:38:33;;;;;;;2.93;2.53;;;16.20;95.90;;;15.72;56.21;101233.41;5054775;28;20639;-76
2023/06/14 05:41:05;;;;;;;5.60;2.63;;;16.20;95.70;;;15.78;56.84;101231.03;5054487;28;20713;-76
2023/06/14 05:43:38;;;;;;;5.93;3.07;;;16.30;95.60;;;15.81;57.40;101241.47;5054612;28;20818;-75
2023/06/14 05:46:10;;;;;;;3.87;2.63;;;16.40;95.60;;;15.86;57.13;101239.03;5054939;28;20198;-75
2023/06/14 05:48:42;;;;;;;3.23;2.90;;;16.40;95.60;;;15.82;57.64;101235.91;5054543;28;20607;-75
2023/06/14 05:51:14;;;;;;;3.10;2.70;;;16.40;95.90;;;15.86;57.41;101239.03;5054807;28;20194;-75
2023/06/14 05:53:47;;;;;;;4.27;2.60;;;16.40;95.80;;;15.91;57.38;101239.34;5054760;28;20236;-77
2023/06/14 05:56:19;;;;;;;4.27;2.60;;;16.40;95.90;;;15.97;56.97;101242.16;5054757;28;20198;-75
2023/06/14 05:58:52;;;;;;;3.33;2.33;;;16.50;95.80;;;16.03;56.31;101240.56;5054752;28;20190;-75
2023/06/14 06:01:25;;;;;;;5.67;3.00;;;16.60;95.80;;;16.09;56.57;101245.25;5054569;28;20297;-76
2023/06/14 06:03:56;;;;;;;4.10;2.90;;;16.60;95.60;;;16.12;57.29;101250.28;5054642;28;20248;-75
2023/06/14 06:06:28;;;;;;;2.93;2.60;;;16.70;95.70;;;16.19;56.62;101256.63;5054308;28;20571;-76
2023/06/14 06:09:00;;;;;;;3.60;2.90;;;16.70;95.50;;;16.26;56.05;101254.88;5054549;28;20202;-76
2023/06/14 06:11:32;;;;;;;7.40;2.77;;;16.80;95.40;;;16.27;55.82;101259.22;5053753;28;20214;-75
2023/06/14 06:14:20;;;;;;;5.50;3.10;;;16.80;95.40;;;16.28;56.26;101258.22;5054394;28;20240;-75
2023/06/14 06:16:53;;;;;;;4.60;3.17;;;16.80;95.30;;;16.31;56.65;101255.16;5054379;28;20273;-76
2023/06/14 06:19:25;;;;;;;5.10;2.70;;;17.00;95.50;;;16.36;54.96;101246.50;5054301;28;20272;-76
2023/06/14 06:21:57;;;;;;;3.07;2.77;;;16.90;95.30;;;16.41;56.00;101250.31;5054164;28;20260;-75
2023/06/14 06:24:29;;;;;;;7.57;2.77;;;17.00;95.30;;;16.46;55.00;101250.59;5054211;28;20273;-75
2023/06/14 06:27:00;;;;;;;3.70;3.10;;;17.00;95.10;;;16.49;55.07;101252.94;5054183;28;20194;-75
2023/06/14 06:29:33;;;;;;;4.07;2.80;;;17.00;95.00;;;16.47;55.48;101252.25;5053811;28;20632;-75
2023/06/14 06:32:06;;;;;;;3.67;3.00;;;17.10;95.00;;;16.40;55.28;101255.91;5053969;28;20309;-75
2023/06/14 06:34:38;;;;;;;3.13;2.53;;;16.90;94.80;;;16.50;55.75;101254.63;5054058;28;20218;-76
2023/06/14 06:37:11;;;;;;;3.60;2.90;;;17.10;95.10;;;16.56;54.38;101256.59;5054200;28;20259;-73
2023/06/14 06:39:43;;;;;;;2.97;2.77;;;17.10;94.70;;;16.60;55.29;101260.63;5054040;28;20282;-72
2023/06/14 06:42:15;;;;;;;4.93;2.80;;;17.20;95.10;;;16.60;54.86;101265.16;5053539;28;20312;-72
2023/06/14 06:44:48;;;;;;;4.47;2.70;;;17.10;94.90;;;16.67;54.96;101268.81;5053998;28;20225;-72
2023/06/14 06:47:20;;;;;;;11.53;4.00;;;17.20;95.00;;;16.77;55.84;101273.94;5053937;28;20202;-72
2023/06/14 06:49:52;;;;;;;5.13;3.40;;;17.30;95.00;;;16.81;54.86;101269.81;5053519;28;20674;-73
2023/06/14 06:52:24;;;;;;;3.33;2.80;;;17.40;94.60;;;16.88;54.41;101270.75;5053522;28;20746;-72
2023/06/14 06:54:57;;;;;;;5.60;2.90;;;17.40;95.00;;;16.95;54.65;101279.78;5053498;28;20731;-74
2023/06/14 06:57:29;;;;;;;3.67;3.30;;;17.50;94.60;;;16.97;54.23;101272.31;5053699;28;20224;-72
2023/06/14 07:00:05;;;;;;;4.13;2.60;;;17.60;94.40;;;17.08;54.23;101288.06;5053722;28;20190;-73
2023/06/14 07:02:37;;;;;;;4.53;2.73;;;17.60;94.50;;;17.09;53.55;101287.03;5053533;28;20225;-72
2023/06/14 07:05:09;;;;;;;3.53;2.27;;;17.70;93.90;;;17.17;53.48;101281.50;5053626;28;20205;-73
2023/06/14 07:07:41;;;;;;;3.17;2.70;;;17.80;94.00;;;17.25;53.13;101281.41;5053567;28;20201;-72
2023/06/14 07:10:13;;;;;;;8.63;3.10;;;17.80;94.00;;;17.33;52.34;101286.69;5053614;28;20198;-73
2023/06/14 07:12:45;;;;;;;3.70;2.87;;;17.90;93.60;;;17.39;52.33;101294.06;5053153;28;20806;-72
2023/06/14 07:15:18;;;;;;;4.37;3.20;;;18.00;93.50;;;17.47;51.58;101302.03;5053439;28;20205;-72
2023/06/14 07:17:50;;;;;;;4.00;2.40;;;18.00;93.20;;;17.54;51.58;101289.41;5053454;28;20232;-72
2023/06/14 07:20:24;;;;;;;2.80;2.60;;;18.10;93.10;;;17.56;51.89;101290.13;5053463;28;20281;-74
2023/06/14 07:22:56;;;;;;;3.23;2.47;;;18.10;92.90;;;17.63;51.74;101290.19;5052863;28;20236;-73
2023/06/14 07:25:28;;;;;;;4.57;2.90;;;18.20;92.80;;;17.74;51.76;101297.78;5053384;28;20618;-73
2023/06/14 07:28:00;;;;;;;5.10;2.53;;;18.30;93.10;;;17.83;51.10;101293.91;5053036;28;20679;-73
2023/06/14 07:30:33;;;;;;;3.13;2.70;;;18.40;92.60;;;17.90;51.69;101300.25;5053287;28;20225;-72
2023/06/14 07:33:05;;;;;;;3.67;2.80;;;18.50;92.80;;;17.97;51.05;101298.44;5053208;28;20305;-72
2023/06/14 07:35:37;;;;;;;4.07;3.00;;;18.60;92.50;;;18.02;50.12;101300.53;5052898;28;20615;-72
2023/06/14 07:38:12;;;;;;;2.80;2.50;;;18.60;92.10;;;18.10;49.47;101295.00;5053179;28;20193;-72
2023/06/14 07:40:44;;;;;;;3.63;2.57;;;18.70;92.00;;;18.12;49.89;101301.88;5052775;28;20249;-72
2023/06/14 07:43:17;;;;;;;3.67;2.40;;;18.70;91.90;;;18.18;49.53;101287.53;5053013;28;20283;-73
2023/06/14 07:45:51;;;;;;;2.97;2.70;;;18.70;91.50;;;18.13;48.16;101291.88;5053145;28;20608;-73
2023/06/14 07:48:37;;;;;;;3.10;2.80;;;18.70;91.00;;;18.22;49.03;101296.13;5053140;28;20190;-72
2023/06/14 07:51:09;;;;;;;4.03;2.90;;;18.80;91.50;;;18.10;48.71;101293.13;5053110;28;20196;-72
2023/06/14 07:53:42;;;;;;;4.63;2.93;;;18.70;91.00;;;18.19;49.22;101282.97;5053050;28;20257;-72
2023/06/14 07:56:13;;;;;;;4.03;2.70;;;18.80;91.40;;;18.32;49.71;101277.66;5053100;28;20194;-72
2023/06/14 07:58:45;;;;;;;3.43;2.60;;;18.90;91.80;;;18.41;48.99;101289.19;5053049;28;20190;-72
2023/06/14 08:01:19;;;;;;;2.53;2.33;;;19.00;91.40;;;18.51;48.29;101287.81;5052762;28;20244;-73
2023/06/14 08:03:51;;;;;;;4.43;2.70;;;19.10;90.90;;;18.65;47.39;101294.16;5052802;28;20272;-73
2023/06/14 08:06:23;;;;;;;3.90;2.57;;;19.20;90.60;;;18.53;48.48;101283.03;5052963;28;20248;-72
2023/06/14 08:08:55;;;;;;;4.03;2.50;;;19.00;91.00;;;18.63;47.99;101299.78;5053001;28;20221;-73
2023/06/14 08:11:27;;;;;;;3.53;2.73;;;19.20;90.80;;;18.75;46.87;101294.66;5052596;28;20567;-73
2023/06/14 08:13:59;;;;;;;4.40;2.50;;;19.30;90.10;;;18.73;46.42;101294.84;5052854;28;20237;-72
2023/06/14 08:16:32;;;;;;;2.90;2.70;;;19.30;89.90;;;18.73;47.13;101292.13;5052885;28;20214;-73
2023/06/14 08:19:05;;;;;;;4.43;2.50;;;19.30;90.30;;;18.89;46.82;101292.84;5052857;28;20269;-73
2023/06/14 08:21:36;;;;;;;4.37;3.00;;;19.40;90.30;;;19.04;46.43;101285.41;5052771;28;20187;-72
2023/06/14 08:24:09;;;;;;;4.13;2.53;;;19.60;90.10;;;19.11;46.65;101289.00;5052729;28;20214;-73
2023/06/14 08:26:41;;;;;;;3.70;2.70;;;19.60;90.10;;;19.18;46.17;101289.81;5052447;28;20199;-73
2023/06/14 08:29:13;;;;;;;2.93;2.67;;;19.70;89.50;;;19.39;45.14;101289.69;5052743;28;20297;-73
2023/06/14 08:31:47;;;;;;;5.37;2.60;;;19.90;89.10;;;19.50;44.58;101286.41;5052622;28;20213;-72
2023/06/14 08:34:19;;;;;;;2.60;2.30;;;20.10;87.80;;;19.55;45.65;101291.25;5053580;28;20610;-73
2023/06/14 08:36:54;;;;;;;3.37;2.50;;;20.10;88.10;;;19.64;43.44;101293.56;5056403;28;20194;-73
2023/06/14 08:39:25;;;;;;;2.60;2.40;;;20.20;86.30;;;19.63;42.84;101282.88;5056398;28;20275;-73
2023/06/14 08:41:57;;;;;;;5.80;2.53;;;20.20;85.40;;;19.79;43.59;101289.81;5055861;28;20268;-72
2023/06/14 08:44:30;;;;;;;2.87;2.60;;;20.30;86.40;;;19.84;44.29;101285.44;5056992;28;20301;-73
2023/06/14 08:47:06;;;;;;;3.00;2.40;;;20.40;86.90;;;19.91;43.49;101288.16;5055914;28;20640;-73
2023/06/14 08:49:42;;;;;;;2.50;2.30;;;20.40;86.20;;;20.03;42.95;101291.94;5055897;28;20554;-73
2023/06/14 08:52:18;;;;;;;3.47;2.53;;;20.50;85.90;;;19.99;43.50;101293.38;5056069;28;20264;-72
2023/06/14 08:54:50;;;;;;;2.50;2.30;;;20.50;85.60;;;20.15;43.37;101295.69;5056015;28;20229;-73
2023/06/14 08:57:25;;;;;;;2.83;2.30;;;20.70;85.80;;;20.21;42.84;101289.41;5056028;28;20281;-73
2023/06/14 09:00:01;;;;;;;2.83;2.30;;;20.70;85.00;;;20.17;42.68;101285.47;5055900;28;20418;-72
2023/06/14 09:02:35;;;;;;;5.27;2.70;;;20.70;84.70;;;20.27;43.38;101285.91;5055819;28;20221;-73
2023/06/14 09:05:08;;;;;;;3.77;2.97;;;20.70;85.60;;;20.48;43.03;101280.19;5056012;28;20191;-73
2023/06/14 09:07:41;;;;;;;2.70;2.50;;;20.90;85.90;;;20.72;42.28;101290.41;5055860;28;20562;-73
2023/06/14 09:10:16;;;;;;;2.70;2.50;;;21.20;84.20;;;20.82;42.28;101298.16;5055977;28;20204;-73
2023/06/14 09:12:48;;;;;;;4.40;2.43;;;21.40;84.20;;;20.87;41.35;101297.47;5055753;28;20233;-72
2023/06/14 09:15:20;;;;;;;2.50;2.20;;;21.40;83.70;;;20.89;41.54;101293.50;5055439;28;20670;-72
2023/06/14 09:17:54;;;;;;;2.93;2.50;;;21.40;83.10;;;20.99;40.79;101298.50;5055772;28;20198;-73
2023/06/14 09:20:26;;;;;;;3.63;2.40;;;21.50;82.30;;;21.04;41.80;101295.97;5055352;28;20225;-73
2023/06/14 09:22:58;;;;;;;2.40;2.20;;;21.50;83.10;;;21.19;40.39;101294.69;5055402;28;20222;-72
2023/06/14 09:25:30;;;;;;;2.57;2.37;;;21.70;81.40;;;21.29;40.63;101305.09;5055048;28;20612;-72
2023/06/14 09:28:11;;;;;;;3.23;2.60;;;21.80;81.80;;;21.24;40.77;101299.47;5055414;28;20201;-72
2023/06/14 09:30:43;;;;;;;3.47;2.60;;;21.70;81.50;;;21.33;40.14;101300.91;5055413;28;20276;-73
2023/06/14 09:33:21;;;;;;;2.70;2.50;;;21.80;81.10;;;21.34;39.42;101297.09;5055269;28;20230;-72
2023/06/14 09:35:57;;;;;;;5.57;2.50;;;21.80;80.90;;;21.42;39.93;101298.75;5055450;28;20260;-73
2023/06/14 09:38:29;;;;;;;3.13;2.40;;;21.90;80.50;;;21.51;40.34;101303.72;5055281;28;20297;-74
2023/06/14 09:41:06;;;;;;;2.73;2.40;;;22.00;81.30;;;21.57;40.64;101297.41;5055473;28;20218;-74
2023/06/14 09:43:39;;;;;;;10.00;2.77;;;22.10;81.50;;;21.58;39.44;101293.63;5054993;28;20325;-73
2023/06/14 09:46:11;;;;;;;4.07;2.50;;;22.00;79.50;;;21.69;40.27;101300.25;5054894;28;20277;-73
2023/06/14 09:48:44;;;;;;;2.67;2.40;;;22.10;81.10;;;21.79;39.28;101286.97;5055085;28;20285;-73
2023/06/14 09:51:23;;;;;;;2.90;2.60;;;22.30;80.40;;;21.92;40.78;101292.38;5055010;28;20194;-73
2023/06/14 09:53:59;;;;;;;2.63;2.43;;;22.40;81.90;;;22.10;39.48;101288.88;5054642;28;20700;-73
2023/06/14 09:56:35;;;;;;;3.10;2.67;;;22.60;79.60;;;22.21;39.25;101293.63;5054893;28;20193;-73
2023/06/14 09:59:13;;;;;;;2.73;2.30;;;22.70;79.80;;;22.31;38.30;101290.38;5054855;28;20228;-74
2023/06/14 10:01:49;;;;;;;2.43;2.23;;;22.80;79.30;;;22.43;38.53;101292.13;5054439;28;20195;-72
2023/06/14 10:04:28;;;;;;;3.33;2.20;;;22.80;79.20;;;22.60;38.48;101289.69;5054708;28;20214;-73
2023/06/14 10:07:02;;;;;;;3.03;2.73;;;23.10;78.80;;;22.62;38.09;101280.19;5054436;28;20606;-74
2023/06/14 10:09:36;;;;;;;3.37;2.63;;;23.00;78.30;;;22.83;37.96;101287.16;5054692;28;20244;-74
2023/06/14 10:12:10;;;;;;;2.50;2.30;;;23.30;78.60;;;22.87;38.19;101287.53;5054520;28;20261;-73
2023/06/14 10:14:42;;;;;;;4.07;2.90;;;23.30;77.60;;;23.04;37.09;101281.22;5054544;28;20233;-73
2023/06/14 10:17:24;;;;;;;3.47;3.00;;;23.50;76.80;;;23.06;37.33;101280.97;5054500;28;20190;-73
2023/06/14 10:20:11;;;;;;;5.40;3.23;;;23.40;77.00;;;23.12;37.11;101283.63;5054486;28;20244;-73
2023/06/14 10:22:51;;;;;;;2.80;2.50;;;23.50;76.50;;;23.17;38.22;101277.47;5054824;28;20225;-73
2023/06/14 10:25:34;;;;;;;4.13;2.50;;;23.60;77.30;;;23.27;37.04;101272.31;5053976;28;20643;-73
2023/06/14 10:28:22;;;;;;;3.23;2.27;;;23.70;77.00;;;23.45;36.87;101282.41;5054307;28;20224;-73
2023/06/14 10:31:10;;;;;;;2.83;2.53;;;23.90;77.20;;;23.42;36.13;101275.50;5054210;28;20221;-73
2023/06/14 10:33:57;;;;;;;3.60;2.67;;;23.90;75.60;;;23.50;37.47;101277.88;5053809;28;20222;-73
2023/06/14 10:36:34;;;;;;;3.80;2.63;;;23.80;76.60;;;23.60;37.31;101271.84;5054142;28;20260;-73
2023/06/14 10:39:12;;;;;;;3.20;2.90;;;23.90;76.70;;;23.78;37.12;101281.91;5053786;28;20563;-73